Ostend-Bruges International

Airport
ICAO code: 
EBOS
Summary
ICAO Region: 
EUR
Territory: 
Location: 
Ostend,
Coordinates: 
Aerial View: 
51° 11' 56.034" N, 2° 51' 43.992" E
Metar
Observation
EBOS 030950Z 20013KT 9999 FEW025 BKN044 03/01 Q1008 NOSIG
Station
Oostende Airport
Date/Time
2021-12-03 09:50:00
Wind direction
200°
Wind speed
13 kts
Lowest cloud amount
few clouds
Temperature
3°C
Dew point
1°C
Humidity
86%
QNH
1008 hPa
Weather condition
n/a

Description

Ostend-Bruges International Airport is located in Ostend, Belgium, near the coast and about 25 km from the city centre of Bruges. Although an important proportion of the activities focuses on freight transport, it is increasingly used for passenger flights, mainly charter and holiday flights organised by the tour operators. It is also often used for private business flights.

Climatology

Temperate Marine climate/Oceanic climate (Köppen climate classification Cfb) - Moderately cool summer and comparatively warm winter.

Runways

Designator Length Width Surface Rops
14/32 627 45 GRS No/No
8/26 3200 45 CON Yes/Yes
Airport map: 
Aerial View: 

SKYbrary Partners:

Safety knowledge contributed by: